createdAt,value
2023-03-04T00:03:20.376Z,-0.62
2023-03-04T00:08:29.172Z,-0.62
2023-03-04T00:13:38.205Z,-0.69
2023-03-04T00:18:47.222Z,-0.69
2023-03-04T00:23:56.488Z,-0.69
2023-03-04T00:29:05.526Z,-0.75
2023-03-04T00:34:14.571Z,-0.81
2023-03-04T00:39:24.561Z,-0.88
2023-03-04T00:44:32.658Z,-1
2023-03-04T00:49:41.707Z,-1.06
2023-03-04T00:54:51.706Z,-1
2023-03-04T00:59:59.626Z,-1.06
2023-03-04T01:05:08.714Z,-1.12
2023-03-04T01:10:17.589Z,-1.25
2023-03-04T01:15:26.642Z,-1.5
2023-03-04T01:20:35.556Z,-1.56
2023-03-04T01:25:44.646Z,-1.5
2023-03-04T01:30:53.739Z,-1.62
2023-03-04T01:36:02.640Z,-1.69
2023-03-04T01:41:11.562Z,-1.81
2023-03-04T01:46:20.697Z,-1.87
2023-03-04T01:56:27.598Z,-1.81
2023-03-04T02:01:36.683Z,-1.81
2023-03-04T02:06:45.725Z,-1.87
2023-03-04T02:11:54.701Z,-1.94
2023-03-04T02:17:03.724Z,-2.06
2023-03-04T02:22:12.824Z,-2.06
2023-03-04T02:27:22.217Z,-2.12
2023-03-04T02:32:30.886Z,-2.19
2023-03-04T02:37:39.869Z,-2.25
2023-03-04T02:42:48.925Z,-2.31
2023-03-04T02:47:57.929Z,-2.31
2023-03-04T02:53:07.019Z,-2.31
2023-03-04T02:58:16.260Z,-2.31
2023-03-04T03:03:25.163Z,-2.12
2023-03-04T03:08:34.206Z,-2.12
2023-03-04T03:13:43.135Z,-2.06
2023-03-04T03:18:52.196Z,-2.12
2023-03-04T03:24:04.627Z,-2.06
2023-03-04T03:29:13.504Z,-2.06
2023-03-04T03:34:22.508Z,-2
2023-03-04T03:39:31.692Z,-2.06
2023-03-04T03:44:40.909Z,-2.06
2023-03-04T03:49:49.850Z,-2.06
2023-03-04T03:55:01.347Z,-1.94
2023-03-04T04:00:08.061Z,-1.81
2023-03-04T04:05:17.200Z,-1.75
2023-03-04T04:10:29.382Z,-1.81
2023-03-04T04:15:36.702Z,-1.87
2023-03-04T04:20:45.886Z,-1.94
2023-03-04T04:26:00.823Z,-2
2023-03-04T04:31:08.260Z,-2.06
2023-03-04T04:36:18.302Z,-2.25
2023-03-04T04:41:27.238Z,-2.31
2023-03-04T04:46:36.763Z,-2.31
2023-03-04T04:51:45.488Z,-2.44
2023-03-04T04:56:54.503Z,-2.5
2023-03-04T05:02:03.422Z,-2.31
2023-03-04T05:07:12.563Z,-2.19
2023-03-04T05:12:21.721Z,-1.94
2023-03-04T05:17:30.868Z,-1.75
2023-03-04T05:22:40.104Z,-1.75
2023-03-04T05:27:49.213Z,-1.62
2023-03-04T05:33:04.446Z,-1.56
2023-03-04T05:38:12.157Z,-1.56
2023-03-04T05:43:21.579Z,-1.62
2023-03-04T05:48:30.873Z,-1.69
2023-03-04T05:53:40.226Z,-1.81
2023-03-04T06:18:51.529Z,-1.81
2023-03-04T06:28:58.729Z,-1.62
2023-03-04T06:34:08.291Z,-1.56
2023-03-04T06:39:17.565Z,-1.5
2023-03-04T06:44:26.729Z,-1.37
2023-03-04T06:49:36.267Z,-1.19
2023-03-04T06:54:45.405Z,-1.06
2023-03-04T06:59:55.011Z,-0.88
2023-03-04T07:05:04.171Z,-0.69
2023-03-04T07:10:13.579Z,-0.56
2023-03-04T07:15:22.851Z,-0.37
2023-03-04T07:20:32.285Z,-0.31
2023-03-04T07:25:41.736Z,-0.19
2023-03-04T07:30:51.223Z,-0.06
2023-03-04T07:36:00.627Z,0
2023-03-04T07:41:10.301Z,0.06
2023-03-04T07:46:19.673Z,0.06
2023-03-04T08:01:24.336Z,0.25
2023-03-04T08:06:34.664Z,0.31
2023-03-04T08:11:43.858Z,0.25
2023-03-04T08:16:55.157Z,0.5
2023-03-04T08:22:04.151Z,0.69
2023-03-04T08:27:13.569Z,0.81
2023-03-04T08:32:23.209Z,0.88
2023-03-04T08:37:32.269Z,0.94
2023-03-04T08:42:42.570Z,1
2023-03-04T08:47:56.193Z,1
2023-03-04T08:58:05.012Z,1.31
2023-03-04T09:03:15.119Z,1.44
2023-03-04T09:08:27.505Z,1.44
2023-03-04T09:13:36.193Z,1.5
2023-03-04T09:18:46.622Z,1.69
2023-03-04T09:23:55.762Z,1.31
2023-03-04T09:29:05.209Z,1.75
2023-03-04T09:34:14.646Z,1.81
2023-03-04T09:39:24.053Z,2.12
2023-03-04T09:44:33.459Z,2.06
2023-03-04T09:49:44.009Z,2.25
2023-03-04T09:54:52.988Z,2.62
2023-03-04T10:00:02.369Z,2.62
2023-03-04T10:05:10.545Z,2.62
2023-03-04T10:10:19.526Z,2.62
2023-03-04T10:15:28.568Z,2.56
2023-03-04T10:20:37.630Z,2.62
2023-03-04T10:25:46.994Z,2.75
2023-03-04T10:36:05.107Z,2.94
2023-03-04T10:41:14.107Z,2.75
2023-03-04T10:46:25.231Z,3.19
2023-03-04T10:51:32.168Z,3.06
2023-03-04T10:56:41.993Z,3.25
2023-03-04T11:01:50.048Z,3.19
2023-03-04T11:06:59.175Z,3.44
2023-03-04T11:12:08.228Z,3.25
2023-03-04T11:17:17.323Z,3.69
2023-03-04T11:22:26.256Z,3.62
2023-03-04T11:27:35.289Z,4.12
2023-03-04T11:32:44.840Z,4.25
2023-03-04T11:37:53.676Z,4.44
2023-03-04T11:43:02.561Z,4.31
2023-03-04T11:48:11.674Z,4.44
2023-03-04T11:53:23.615Z,4.12
2023-03-04T11:58:29.966Z,4
2023-03-04T12:03:38.915Z,4.19
2023-03-04T12:08:47.888Z,4.44
2023-03-04T12:13:56.956Z,4.69
2023-03-04T12:19:06.027Z,4.87
2023-03-04T12:24:15.180Z,5.06
2023-03-04T12:29:24.154Z,5.06
2023-03-04T12:34:33.107Z,5.12
2023-03-04T12:39:41.870Z,5
2023-03-04T12:49:59.658Z,4.69
2023-03-04T12:55:08.524Z,4.56
2023-03-04T13:00:20.727Z,4.56
2023-03-04T13:05:26.626Z,4.69
2023-03-04T13:10:35.562Z,4.62
2023-03-04T13:15:44.637Z,4.56
2023-03-04T13:20:53.562Z,4.37
2023-03-04T13:26:02.708Z,4.44
2023-03-04T13:31:11.707Z,4.44
2023-03-04T13:36:20.899Z,4.5
2023-03-04T13:41:29.577Z,4.5
2023-03-04T13:46:38.558Z,4.5
2023-03-04T13:51:47.481Z,4.44
2023-03-04T13:56:59.517Z,4.37
2023-03-04T14:07:17.627Z,4.37
2023-03-04T14:12:26.611Z,4.44
2023-03-04T14:22:44.691Z,4.5
2023-03-04T14:27:53.617Z,4.5
2023-03-04T14:33:02.592Z,4.5
2023-03-04T14:38:11.592Z,4.5
2023-03-04T14:43:23.503Z,4.5
2023-03-04T14:48:32.744Z,4.56
2023-03-04T14:53:41.932Z,4.69
2023-03-04T14:58:50.935Z,4.81
2023-03-04T15:04:00.244Z,4.81
2023-03-04T15:09:09.287Z,4.87
2023-03-04T15:14:18.075Z,4.87
2023-03-04T15:19:27.366Z,4.94
2023-03-04T15:24:36.152Z,4.87
2023-03-04T15:29:45.210Z,4.94
2023-03-04T15:34:54.113Z,4.75
2023-03-04T15:40:03.131Z,4.69
2023-03-04T15:45:12.109Z,4.69
2023-03-04T15:50:20.886Z,4.62
2023-03-04T15:55:29.907Z,4.56
2023-03-04T16:00:38.905Z,4.56
2023-03-04T16:05:48.010Z,4.5
2023-03-04T16:10:56.974Z,4.37
2023-03-04T16:16:08.990Z,4.31
2023-03-04T16:21:17.845Z,4.25
2023-03-04T16:31:35.768Z,4.12
2023-03-04T16:36:44.738Z,4.12
2023-03-04T16:41:53.617Z,4.06
2023-03-04T16:47:02.680Z,4
2023-03-04T16:52:11.624Z,3.94
2023-03-04T17:02:29.490Z,3.81
2023-03-04T17:07:38.393Z,3.75
2023-03-04T17:12:47.401Z,3.69
2023-03-04T17:17:56.519Z,3.62
2023-03-04T17:23:05.593Z,3.56
2023-03-04T17:28:14.634Z,3.56
2023-03-04T17:33:23.785Z,3.5
2023-03-04T17:38:32.594Z,3.5
2023-03-04T17:43:41.589Z,3.5
2023-03-04T17:53:59.436Z,3.44
2023-03-04T17:59:08.354Z,3.44
2023-03-04T18:04:17.475Z,3.37
2023-03-04T18:09:26.517Z,3.37
2023-03-04T18:14:35.754Z,3.31
2023-03-04T18:19:44.741Z,3.31
2023-03-04T18:24:53.756Z,3.25
2023-03-04T18:30:02.822Z,3.25
2023-03-04T18:35:11.733Z,3.31
2023-03-04T18:40:20.614Z,3.31
2023-03-04T18:45:29.646Z,3.31
2023-03-04T18:50:38.538Z,3.25
2023-03-04T18:55:47.595Z,3.25
2023-03-04T19:00:56.643Z,3.25
2023-03-04T19:06:05.506Z,3.25
2023-03-04T19:11:14.404Z,3.25
2023-03-04T19:16:23.276Z,3.25
2023-03-04T19:21:32.376Z,3.25
2023-03-04T19:26:41.423Z,3.25
2023-03-04T19:31:50.270Z,3.25
2023-03-04T19:36:59.243Z,3.25
2023-03-04T19:42:08.375Z,3.25
2023-03-04T19:47:17.557Z,3.25
2023-03-04T19:52:26.305Z,3.25
2023-03-04T19:57:35.285Z,3.25
2023-03-04T20:02:44.531Z,3.25
2023-03-04T20:07:53.432Z,3.25
2023-03-04T20:13:02.294Z,3.25
2023-03-04T20:18:11.214Z,3.25
2023-03-04T20:23:20.308Z,3.25
2023-03-04T20:28:29.116Z,3.25
2023-03-04T20:33:38.071Z,3.31
2023-03-04T20:38:47.050Z,3.25
2023-03-04T20:43:56.020Z,3.25
2023-03-04T20:49:04.925Z,3.31
2023-03-04T20:54:13.824Z,3.31
2023-03-04T20:59:22.892Z,3.31
2023-03-04T21:04:33.545Z,3.31
2023-03-04T21:09:40.727Z,3.31
2023-03-04T21:14:49.691Z,3.31
2023-03-04T21:19:58.669Z,3.25
2023-03-04T21:25:07.632Z,3.25
2023-03-04T21:30:16.656Z,3.19
2023-03-04T21:35:25.547Z,3.19
2023-03-04T21:50:30.726Z,3.19
2023-03-04T22:05:36.741Z,3.25
2023-03-04T22:10:45.855Z,3.19
2023-03-04T22:15:55.136Z,3.19
2023-03-04T22:21:04.009Z,3.19
2023-03-04T22:26:13.114Z,3.19
2023-03-04T22:31:22.012Z,3.19
2023-03-04T22:36:31.033Z,3.12
2023-03-04T22:41:40.261Z,3.12
2023-03-04T22:46:49.399Z,3.12
2023-03-04T22:51:58.397Z,3.12
2023-03-04T23:02:16.378Z,3.19
2023-03-04T23:07:25.312Z,3.19
2023-03-04T23:12:34.559Z,3.19
2023-03-04T23:17:43.454Z,3.19
2023-03-04T23:22:52.647Z,3.19
2023-03-04T23:28:01.537Z,3.12
2023-03-04T23:33:10.461Z,3.12
2023-03-04T23:38:20.412Z,3.12
2023-03-04T23:43:34.193Z,3.12
2023-03-04T23:48:45.858Z,3.12
2023-03-04T23:53:55.460Z,3.12
2023-03-04T23:59:04.662Z,3.12
